createdAt,value
2017-11-18T00:00:38.432Z,24.85
2017-11-18T00:03:05.307Z,16.58
2017-11-18T00:05:32.194Z,20.30
2017-11-18T00:07:59.049Z,17.52
2017-11-18T00:10:25.881Z,19.10
2017-11-18T00:12:52.790Z,18.27
2017-11-18T00:15:19.613Z,21.00
2017-11-18T00:17:46.477Z,26.60
2017-11-18T00:20:13.426Z,16.42
2017-11-18T00:22:40.597Z,21.67
2017-11-18T00:25:07.470Z,23.85
2017-11-18T00:27:34.337Z,24.30
2017-11-18T00:30:01.442Z,20.25
2017-11-18T00:32:28.310Z,20.48
2017-11-18T00:34:55.430Z,21.90
2017-11-18T00:37:22.275Z,17.87
2017-11-18T00:39:49.132Z,20.65
2017-11-18T00:42:15.964Z,15.55
2017-11-18T00:44:42.806Z,21.10
2017-11-18T00:47:09.624Z,17.27
2017-11-18T00:49:36.512Z,17.90
2017-11-18T00:52:03.377Z,19.08
2017-11-18T00:54:30.205Z,15.52
2017-11-18T00:56:57.049Z,19.12
2017-11-18T00:59:23.902Z,18.65
2017-11-18T01:01:50.728Z,20.67
2017-11-18T01:04:17.590Z,20.05
2017-11-18T01:06:44.694Z,15.80
2017-11-18T01:09:11.569Z,17.75
2017-11-18T01:11:38.454Z,18.45
2017-11-18T01:14:05.380Z,16.15
2017-11-18T01:16:32.581Z,19.85
2017-11-18T01:18:59.426Z,21.87
2017-11-18T01:21:26.278Z,16.27
2017-11-18T01:23:53.155Z,17.05
2017-11-18T01:26:20.001Z,18.70
2017-11-18T01:28:46.833Z,16.12
2017-11-18T01:31:13.755Z,18.02
2017-11-18T01:33:40.693Z,16.10
2017-11-18T01:36:07.525Z,18.45
2017-11-18T01:38:34.405Z,23.60
2017-11-18T01:41:01.277Z,18.08
2017-11-18T01:43:28.477Z,20.73
2017-11-18T01:45:55.321Z,19.15
2017-11-18T01:48:22.193Z,19.62
2017-11-18T01:50:49.058Z,17.30
2017-11-18T01:53:16.158Z,22.08
2017-11-18T01:55:43.013Z,18.10
2017-11-18T01:58:10.150Z,16.90
2017-11-18T02:00:37.007Z,20.23
2017-11-18T02:03:03.896Z,20.62
2017-11-18T02:05:30.785Z,16.42
2017-11-18T02:07:57.921Z,18.05
2017-11-18T02:10:24.788Z,22.55
2017-11-18T02:12:51.922Z,21.65
2017-11-18T02:15:18.776Z,15.60
2017-11-18T02:17:45.607Z,17.10
2017-11-18T02:20:12.527Z,17.15
2017-11-18T02:22:39.425Z,17.03
2017-11-18T02:25:06.322Z,19.00
2017-11-18T02:27:33.164Z,19.48
2017-11-18T02:30:00.339Z,18.05
2017-11-18T02:32:27.589Z,18.25
2017-11-18T02:34:54.498Z,19.52
2017-11-18T02:37:21.416Z,23.65
2017-11-18T02:39:48.313Z,19.98
2017-11-18T02:42:15.251Z,14.73
2017-11-18T02:44:42.414Z,19.77
2017-11-18T02:47:09.297Z,15.35
2017-11-18T02:49:36.184Z,16.37
2017-11-18T02:52:03.094Z,18.87
2017-11-18T02:54:30.196Z,18.73
2017-11-18T02:56:57.102Z,18.50
2017-11-18T02:59:24.300Z,17.92
2017-11-18T03:01:51.441Z,17.10
2017-11-18T03:04:18.331Z,22.95
2017-11-18T03:06:45.206Z,20.25
2017-11-18T03:09:12.106Z,17.45
2017-11-18T03:11:38.937Z,23.38
2017-11-18T03:14:06.031Z,18.55
2017-11-18T03:16:33.217Z,26.45
2017-11-18T03:19:00.379Z,16.27
2017-11-18T03:21:27.521Z,17.90
2017-11-18T03:23:54.364Z,15.47
2017-11-18T03:26:21.222Z,19.60
2017-11-18T03:28:48.049Z,18.95
2017-11-18T03:31:14.903Z,15.80
2017-11-18T03:33:42.040Z,24.85
2017-11-18T03:36:08.894Z,20.77
2017-11-18T03:38:35.777Z,22.33
2017-11-18T03:41:02.654Z,17.08
2017-11-18T03:43:29.511Z,19.23
2017-11-18T03:45:56.668Z,20.08
2017-11-18T03:48:23.513Z,18.47
2017-11-18T03:50:50.349Z,15.93
2017-11-18T03:53:17.447Z,16.67
2017-11-18T03:55:44.558Z,22.73
2017-11-18T03:58:11.392Z,19.37
2017-11-18T04:00:38.264Z,22.10
2017-11-18T04:03:05.129Z,18.50
2017-11-18T04:05:31.945Z,19.40
2017-11-18T04:07:59.076Z,17.42
2017-11-18T04:10:26.243Z,17.20
2017-11-18T04:12:53.377Z,18.62
2017-11-18T04:15:20.238Z,23.30
2017-11-18T04:17:47.090Z,19.83
2017-11-18T04:20:13.916Z,17.08
2017-11-18T04:22:40.809Z,23.02
2017-11-18T04:25:07.909Z,18.55
2017-11-18T04:27:34.715Z,17.70
2017-11-18T04:30:01.582Z,19.87
2017-11-18T04:32:28.732Z,17.87
2017-11-18T04:34:55.556Z,22.62
2017-11-18T04:37:22.417Z,20.83
2017-11-18T04:39:49.258Z,23.17
2017-11-18T04:42:16.080Z,19.50
2017-11-18T04:44:42.913Z,18.12
2017-11-18T04:47:09.790Z,19.85
2017-11-18T04:49:36.612Z,21.85
2017-11-18T04:52:03.493Z,18.35
2017-11-18T04:54:30.353Z,22.08
2017-11-18T04:56:57.477Z,21.30
2017-11-18T04:59:24.398Z,22.33
2017-11-18T05:01:51.574Z,19.45
2017-11-18T05:04:18.716Z,28.00
2017-11-18T05:06:45.599Z,17.45
2017-11-18T05:09:12.479Z,17.02
2017-11-18T05:11:39.557Z,19.23
2017-11-18T05:14:06.705Z,18.58
2017-11-18T05:16:33.560Z,19.87
2017-11-18T05:19:00.422Z,23.27
2017-11-18T05:21:27.550Z,16.55
2017-11-18T05:23:54.373Z,16.23
2017-11-18T05:26:21.221Z,17.87
2017-11-18T05:28:48.143Z,16.97
2017-11-18T05:31:15.331Z,16.93
2017-11-18T05:33:42.168Z,18.48
2017-11-18T05:36:09.031Z,18.58
2017-11-18T05:38:35.897Z,20.25
2017-11-18T05:41:02.781Z,21.02
2017-11-18T05:43:29.650Z,18.02
2017-11-18T05:45:56.500Z,19.42
2017-11-18T05:48:23.363Z,20.58
2017-11-18T05:50:50.486Z,20.00
2017-11-18T05:53:17.311Z,17.17
2017-11-18T05:55:44.368Z,19.02
2017-11-18T05:58:11.213Z,21.95
2017-11-18T06:00:38.093Z,20.73
2017-11-18T06:03:05.214Z,20.75
2017-11-18T06:05:32.106Z,19.62
2017-11-18T06:07:58.952Z,18.48
2017-11-18T06:10:25.775Z,21.70
2017-11-18T06:12:52.849Z,21.12
2017-11-18T06:15:19.933Z,19.05
2017-11-18T06:17:46.758Z,18.40
2017-11-18T06:20:13.645Z,22.70
2017-11-18T06:22:40.468Z,19.02
2017-11-18T06:25:07.618Z,22.05
2017-11-18T06:27:34.478Z,20.70
2017-11-18T06:30:01.618Z,20.40
2017-11-18T06:32:28.466Z,19.42
2017-11-18T06:34:55.342Z,21.95
2017-11-18T06:37:22.197Z,20.35
2017-11-18T06:39:49.016Z,19.10
2017-11-18T06:42:15.882Z,25.27
2017-11-18T06:44:42.743Z,22.53
2017-11-18T06:47:09.816Z,21.20
2017-11-18T06:49:36.969Z,22.48
2017-11-18T06:52:04.226Z,20.20
2017-11-18T06:54:31.040Z,17.98
2017-11-18T06:56:57.930Z,22.30
2017-11-18T06:59:24.769Z,19.95
2017-11-18T07:01:51.623Z,22.90
2017-11-18T07:04:18.534Z,18.02
2017-11-18T07:06:45.695Z,24.85
2017-11-18T07:09:12.525Z,19.50
2017-11-18T07:11:39.398Z,19.35
2017-11-18T07:14:06.525Z,19.55
2017-11-18T07:16:33.399Z,21.30
2017-11-18T07:19:00.277Z,24.77
2017-11-18T07:21:27.137Z,20.15
2017-11-18T07:23:54.229Z,22.48
2017-11-18T07:26:21.098Z,20.63
2017-11-18T07:28:48.202Z,18.57
2017-11-18T07:31:15.356Z,23.70
2017-11-18T07:33:42.236Z,26.60
2017-11-18T07:36:09.052Z,20.02
2017-11-18T07:38:36.190Z,21.02
2017-11-18T07:41:03.087Z,21.87
2017-11-18T07:43:29.946Z,21.40
2017-11-18T07:45:57.021Z,24.67
2017-11-18T07:48:24.177Z,22.62
2017-11-18T07:50:50.994Z,23.10
2017-11-18T07:53:17.813Z,21.42
2017-11-18T07:55:45.011Z,20.65
2017-11-18T07:58:11.857Z,25.93
2017-11-18T08:00:38.670Z,19.60
2017-11-18T08:03:05.521Z,21.58
2017-11-18T08:05:32.370Z,17.77
2017-11-18T08:07:59.181Z,17.60
2017-11-18T08:10:26.016Z,22.42
2017-11-18T08:12:52.922Z,20.25
2017-11-18T08:15:19.775Z,21.62
2017-11-18T08:17:46.649Z,18.85
2017-11-18T08:20:13.745Z,23.25
2017-11-18T08:22:40.622Z,20.27
2017-11-18T08:25:07.518Z,20.70
2017-11-18T08:27:34.341Z,20.55
2017-11-18T08:30:01.436Z,22.92
2017-11-18T08:32:28.278Z,18.55
2017-11-18T08:34:55.422Z,18.73
2017-11-18T08:37:22.477Z,16.92
2017-11-18T08:39:49.316Z,21.42
2017-11-18T08:42:16.174Z,27.83
2017-11-18T08:44:43.312Z,19.90
2017-11-18T08:47:10.137Z,19.90
2017-11-18T08:49:36.952Z,17.42
2017-11-18T08:52:06.418Z,18.58
2017-11-18T08:54:34.068Z,20.05
2017-11-18T08:57:00.927Z,20.37
2017-11-18T08:59:27.802Z,20.70
2017-11-18T09:01:54.695Z,17.50
2017-11-18T09:04:21.518Z,23.33
2017-11-18T09:06:48.348Z,21.40
2017-11-18T09:09:15.206Z,20.17
2017-11-18T09:11:42.373Z,19.30
2017-11-18T09:14:09.189Z,22.53
2017-11-18T09:16:36.083Z,20.12
2017-11-18T09:19:02.914Z,19.50
2017-11-18T09:21:30.683Z,21.00
2017-11-18T09:23:57.527Z,20.70
2017-11-18T09:26:24.484Z,24.33
2017-11-18T09:28:51.311Z,17.58
2017-11-18T09:31:18.198Z,20.95
2017-11-18T09:33:45.017Z,20.95
2017-11-18T09:36:11.837Z,20.73
2017-11-18T09:38:38.701Z,16.65
2017-11-18T09:41:05.816Z,17.85
2017-11-18T09:43:32.970Z,20.23
2017-11-18T09:45:59.871Z,17.42
2017-11-18T09:48:26.677Z,18.23
2017-11-18T09:50:54.149Z,23.23
2017-11-18T09:53:21.036Z,17.48
2017-11-18T09:55:47.872Z,19.00
2017-11-18T09:58:15.060Z,19.23
2017-11-18T10:00:41.917Z,20.23
2017-11-18T10:03:08.764Z,17.75
2017-11-18T10:05:35.858Z,18.50
2017-11-18T10:08:02.777Z,21.05
2017-11-18T10:10:29.648Z,20.95
2017-11-18T10:12:56.507Z,17.35
2017-11-18T10:15:23.673Z,16.75
2017-11-18T10:17:50.533Z,18.37
2017-11-18T10:20:17.635Z,20.10
2017-11-18T10:22:44.518Z,25.37
2017-11-18T10:25:11.353Z,16.58
2017-11-18T10:27:38.226Z,24.55
2017-11-18T10:30:05.090Z,19.83
2017-11-18T10:32:31.958Z,19.23
2017-11-18T10:34:58.772Z,14.87
2017-11-18T10:37:25.647Z,19.77
2017-11-18T10:39:52.544Z,18.20
2017-11-18T10:42:19.372Z,16.00
2017-11-18T10:44:46.221Z,19.80
2017-11-18T10:47:13.040Z,22.23
2017-11-18T10:49:39.889Z,15.95
2017-11-18T10:52:06.787Z,19.60
2017-11-18T10:54:33.880Z,17.92
2017-11-18T10:57:00.702Z,25.52
2017-11-18T10:59:27.586Z,16.50
2017-11-18T11:01:54.446Z,17.58
2017-11-18T11:04:21.329Z,16.77
2017-11-18T11:06:48.511Z,18.17
2017-11-18T11:09:15.654Z,19.77
2017-11-18T11:11:42.813Z,16.87
2017-11-18T11:14:09.691Z,14.95
2017-11-18T11:16:36.513Z,19.10
2017-11-18T11:19:03.379Z,17.65
2017-11-18T11:21:30.222Z,17.30
2017-11-18T11:23:57.048Z,17.45
2017-11-18T11:26:23.900Z,20.88
2017-11-18T11:28:50.758Z,20.10
2017-11-18T11:31:17.611Z,16.75
2017-11-18T11:33:44.488Z,16.77
2017-11-18T11:36:11.641Z,17.87
2017-11-18T11:38:38.489Z,20.30
2017-11-18T11:41:05.346Z,20.35
2017-11-18T11:43:32.270Z,18.20
2017-11-18T11:45:59.109Z,21.10
2017-11-18T11:48:25.952Z,18.83
2017-11-18T11:50:52.857Z,16.10
2017-11-18T11:53:19.730Z,18.67
2017-11-18T11:55:46.576Z,19.30
2017-11-18T11:58:13.746Z,20.58
2017-11-18T12:00:40.597Z,20.48
2017-11-18T12:03:07.406Z,21.08
2017-11-18T12:05:34.313Z,16.42
2017-11-18T12:08:01.167Z,19.60
2017-11-18T12:10:28.005Z,16.70
2017-11-18T12:12:54.846Z,19.08
2017-11-18T12:15:21.696Z,19.58
2017-11-18T12:17:48.537Z,21.25
2017-11-18T12:20:15.637Z,20.48
2017-11-18T12:22:42.762Z,20.92
2017-11-18T12:25:09.655Z,23.23
2017-11-18T12:27:36.517Z,23.20
2017-11-18T12:30:03.384Z,22.80
2017-11-18T12:32:30.222Z,27.73
2017-11-18T12:34:57.413Z,24.00
2017-11-18T12:37:24.574Z,21.98
2017-11-18T12:39:51.716Z,18.67
2017-11-18T12:42:18.877Z,19.37
2017-11-18T12:44:45.924Z,15.20
2017-11-18T12:47:12.772Z,17.30
2017-11-18T12:49:39.910Z,15.23
2017-11-18T12:52:06.741Z,13.95
2017-11-18T12:54:33.558Z,12.15
2017-11-18T12:57:00.746Z,13.80
2017-11-18T12:59:27.902Z,12.37
2017-11-18T13:01:54.741Z,12.73
2017-11-18T13:04:21.589Z,11.25
2017-11-18T13:06:48.439Z,11.63
2017-11-18T13:09:15.273Z,11.25
2017-11-18T13:11:42.526Z,10.43
2017-11-18T13:14:09.366Z,9.15
2017-11-18T13:16:36.514Z,9.95
2017-11-18T13:19:03.349Z,11.45
2017-11-18T13:21:30.164Z,10.70
2017-11-18T13:23:56.977Z,9.40
2017-11-18T13:26:24.199Z,10.40
2017-11-18T13:28:51.050Z,12.43
2017-11-18T13:31:18.185Z,10.43
2017-11-18T13:33:45.049Z,10.30
2017-11-18T13:36:12.181Z,9.10
2017-11-18T13:41:23.538Z,9.60
2017-11-18T13:43:57.397Z,9.00
2017-11-18T13:46:28.667Z,9.90
2017-11-18T13:49:00.157Z,9.43
2017-11-18T13:51:31.211Z,9.80
2017-11-18T13:54:02.536Z,9.80
2017-11-18T13:56:33.642Z,10.30
2017-11-18T13:59:04.710Z,9.20
2017-11-18T14:01:35.788Z,9.40
2017-11-18T14:04:04.835Z,9.70
2017-11-18T14:06:33.820Z,12.80
2017-11-18T14:09:02.199Z,15.38
2017-11-18T14:11:30.329Z,10.45
2017-11-18T14:13:57.997Z,12.60
2017-11-18T14:16:25.297Z,11.20
2017-11-18T14:18:52.233Z,11.50
2017-11-18T14:21:19.114Z,10.40
2017-11-18T14:23:45.968Z,10.30
2017-11-18T14:26:12.849Z,11.52
2017-11-18T14:28:39.994Z,11.00
2017-11-18T14:31:06.834Z,13.90
2017-11-18T14:33:33.680Z,10.45
2017-11-18T14:36:00.560Z,9.93
2017-11-18T14:38:27.670Z,10.88
2017-11-18T14:40:54.540Z,12.00
2017-11-18T14:43:21.462Z,14.10
2017-11-18T14:45:48.289Z,12.73
2017-11-18T14:48:15.154Z,9.70
2017-11-18T14:50:42.293Z,11.65
2017-11-18T14:53:09.452Z,11.30
2017-11-18T14:55:36.330Z,11.02
2017-11-18T14:58:03.179Z,10.80
2017-11-18T15:00:30.066Z,10.15
2017-11-18T15:02:56.987Z,10.65
2017-11-18T15:05:23.894Z,10.25
2017-11-18T15:07:50.771Z,11.80
2017-11-18T15:10:17.609Z,14.38
2017-11-18T15:12:44.542Z,12.93
2017-11-18T15:15:11.418Z,14.23
2017-11-18T15:17:38.538Z,11.77
2017-11-18T15:20:05.413Z,12.90
2017-11-18T15:22:32.323Z,13.67
2017-11-18T15:24:59.210Z,12.57
2017-11-18T15:27:26.139Z,17.83
2017-11-18T15:29:52.997Z,11.73
2017-11-18T15:32:19.865Z,13.60
2017-11-18T15:34:46.755Z,12.60
2017-11-18T15:37:13.861Z,15.60
2017-11-18T15:39:40.725Z,16.40
2017-11-18T15:42:07.840Z,15.38
2017-11-18T15:44:34.996Z,17.50
2017-11-18T15:47:01.880Z,13.80
2017-11-18T15:49:28.777Z,14.70
2017-11-18T15:51:55.728Z,18.58
2017-11-18T15:54:22.886Z,13.52
2017-11-18T15:56:49.830Z,15.93
2017-11-18T15:59:16.716Z,14.77
2017-11-18T16:01:43.565Z,13.43
2017-11-18T16:04:10.437Z,17.92
2017-11-18T16:06:37.508Z,12.20
2017-11-18T16:09:04.468Z,14.55
2017-11-18T16:11:31.561Z,16.70
2017-11-18T16:13:58.417Z,16.60
2017-11-18T16:16:25.315Z,17.33
2017-11-18T16:18:52.198Z,22.48
2017-11-18T16:21:19.387Z,24.40
2017-11-18T16:23:46.290Z,15.20
2017-11-18T16:26:13.177Z,43.33
2017-11-18T16:28:40.052Z,17.02
2017-11-18T16:31:06.966Z,16.90
2017-11-18T16:33:33.878Z,16.95
2017-11-18T16:36:00.770Z,18.08
2017-11-18T16:38:27.678Z,16.85
2017-11-18T16:40:54.585Z,17.80
2017-11-18T16:43:21.801Z,23.20
2017-11-18T16:45:48.690Z,15.40
2017-11-18T16:48:15.786Z,15.93
2017-11-18T16:50:42.934Z,18.85
2017-11-18T16:53:09.818Z,21.48
2017-11-18T16:55:36.692Z,21.27
2017-11-18T16:58:03.577Z,19.10
2017-11-18T17:00:30.529Z,19.15
2017-11-18T17:02:57.494Z,20.77
2017-11-18T17:05:24.373Z,19.17
2017-11-18T17:07:51.276Z,19.62
2017-11-18T17:10:18.202Z,19.45
2017-11-18T17:12:45.139Z,27.05
2017-11-18T17:15:12.063Z,18.25
2017-11-18T17:17:39.175Z,22.30
2017-11-18T17:20:06.015Z,19.33
2017-11-18T17:22:32.890Z,22.20
2017-11-18T17:25:00.038Z,22.33
2017-11-18T17:27:27.222Z,22.27
2017-11-18T17:29:54.064Z,20.25
2017-11-18T17:32:20.986Z,22.15
2017-11-18T17:34:47.923Z,25.55
2017-11-18T17:37:14.834Z,24.95
2017-11-18T17:39:41.713Z,21.52
2017-11-18T17:42:09.709Z,23.33
2017-11-18T17:44:36.573Z,23.12
2017-11-18T17:47:03.468Z,20.85
2017-11-18T17:49:30.343Z,25.02
2017-11-18T17:51:57.204Z,28.00
2017-11-18T17:54:24.337Z,30.23
2017-11-18T17:56:51.489Z,23.00
2017-11-18T17:59:18.383Z,23.10
2017-11-18T18:01:45.310Z,27.05
2017-11-18T18:04:12.203Z,25.25
2017-11-18T18:06:39.050Z,22.05
2017-11-18T18:09:06.141Z,23.50
2017-11-18T18:11:33.002Z,21.95
2017-11-18T18:14:01.102Z,22.73
2017-11-18T18:16:28.097Z,19.33
2017-11-18T18:18:54.964Z,28.23
2017-11-18T18:21:21.889Z,20.83
2017-11-18T18:23:48.781Z,23.20
2017-11-18T18:26:15.865Z,23.87
2017-11-18T18:28:43.011Z,22.50
2017-11-18T18:31:09.900Z,23.77
2017-11-18T18:33:36.762Z,20.20
2017-11-18T18:36:03.636Z,27.00
2017-11-18T18:38:30.501Z,28.63
2017-11-18T18:40:58.243Z,23.75
2017-11-18T18:43:25.402Z,22.90
2017-11-18T18:45:52.314Z,21.30
2017-11-18T18:48:19.181Z,26.48
2017-11-18T18:50:46.102Z,22.65
2017-11-18T18:53:13.022Z,25.20
2017-11-18T18:55:40.112Z,25.27
2017-11-18T18:58:06.988Z,20.37
2017-11-18T19:00:33.846Z,22.62
2017-11-18T19:03:00.969Z,21.60
2017-11-18T19:05:27.808Z,26.35
2017-11-18T19:07:54.714Z,24.05
2017-11-18T19:10:21.574Z,26.90
2017-11-18T19:12:48.420Z,27.37
2017-11-18T19:15:15.279Z,33.03
2017-11-18T19:17:42.169Z,26.12
2017-11-18T19:20:09.001Z,23.87
2017-11-18T19:22:35.879Z,23.35
2017-11-18T19:25:02.732Z,20.08
2017-11-18T19:27:29.655Z,26.65
2017-11-18T19:29:56.530Z,25.35
2017-11-18T19:32:23.366Z,22.02
2017-11-18T19:34:50.734Z,24.52
2017-11-18T19:37:17.585Z,21.37
2017-11-18T19:39:44.950Z,25.97
2017-11-18T19:42:11.806Z,23.85
2017-11-18T19:44:38.707Z,30.75
2017-11-18T19:47:05.616Z,22.65
2017-11-18T19:49:32.734Z,25.98
2017-11-18T19:51:59.622Z,23.77
2017-11-18T19:54:26.822Z,28.52
2017-11-18T19:56:53.654Z,26.23
2017-11-18T19:59:20.815Z,25.73
2017-11-18T20:01:47.669Z,27.77
2017-11-18T20:04:14.809Z,21.90
2017-11-18T20:06:41.679Z,28.65
2017-11-18T20:09:08.545Z,36.85
2017-11-18T20:11:35.678Z,32.45
2017-11-18T20:14:02.533Z,22.75
2017-11-18T20:16:29.638Z,22.27
2017-11-18T20:18:56.705Z,30.98
2017-11-18T20:21:23.557Z,25.85
2017-11-18T20:23:50.428Z,24.08
2017-11-18T20:26:17.320Z,24.20
2017-11-18T20:28:44.667Z,29.52
2017-11-18T20:31:11.537Z,25.65
2017-11-18T20:33:43.261Z,28.48
2017-11-18T20:36:11.962Z,29.58
2017-11-18T20:38:39.106Z,28.77
2017-11-18T20:41:06.272Z,22.83
2017-11-18T20:43:33.633Z,22.83
2017-11-18T20:46:00.444Z,19.75
2017-11-18T20:48:27.286Z,20.05
2017-11-18T20:50:54.174Z,22.80
2017-11-18T20:53:20.998Z,24.25
2017-11-18T20:55:47.814Z,24.00
2017-11-18T20:58:14.983Z,25.87
2017-11-18T21:00:41.817Z,26.40
2017-11-18T21:03:08.692Z,23.77
2017-11-18T21:05:35.548Z,21.25
2017-11-18T21:08:02.664Z,27.65
2017-11-18T21:10:29.538Z,27.10
2017-11-18T21:12:56.378Z,30.15
2017-11-18T21:15:23.498Z,19.98
2017-11-18T21:17:50.370Z,21.95
2017-11-18T21:20:17.209Z,25.62
2017-11-18T21:22:44.341Z,21.25
2017-11-18T21:25:11.215Z,32.08
2017-11-18T21:27:39.542Z,24.92
2017-11-18T21:30:07.005Z,23.48
2017-11-18T21:32:35.676Z,29.77
2017-11-18T21:35:02.578Z,22.90
2017-11-18T21:37:30.382Z,21.80
2017-11-18T21:39:57.339Z,26.85
2017-11-18T21:42:24.222Z,26.45
2017-11-18T21:44:51.098Z,25.10
2017-11-18T21:47:17.982Z,25.02
2017-11-18T21:49:45.137Z,26.70
2017-11-18T21:52:11.957Z,20.70
2017-11-18T21:54:38.806Z,25.88
2017-11-18T21:57:05.649Z,25.58
2017-11-18T21:59:32.520Z,19.42
2017-11-18T22:01:59.414Z,19.30
2017-11-18T22:04:26.406Z,23.50
2017-11-18T22:06:54.880Z,22.65
2017-11-18T22:09:21.965Z,23.98
2017-11-18T22:11:49.464Z,17.40
2017-11-18T22:14:17.740Z,20.70
2017-11-18T22:16:45.606Z,18.20
2017-11-18T22:19:13.290Z,19.00
2017-11-18T22:21:42.165Z,16.45
2017-11-18T22:24:09.619Z,25.10
2017-11-18T22:26:39.430Z,19.50
2017-11-18T22:29:07.469Z,15.93
2017-11-18T22:31:35.266Z,18.67
2017-11-18T22:34:03.472Z,25.15
2017-11-18T22:36:31.824Z,19.25
2017-11-18T22:38:59.287Z,22.23
2017-11-18T22:41:26.864Z,21.30
2017-11-18T22:43:55.010Z,20.42
2017-11-18T22:46:23.391Z,22.27
2017-11-18T22:48:51.258Z,17.37
2017-11-18T22:51:18.510Z,19.50
2017-11-18T22:53:45.452Z,19.30
2017-11-18T22:56:12.362Z,20.88
2017-11-18T22:58:39.227Z,21.10
2017-11-18T23:01:06.320Z,19.23
2017-11-18T23:03:33.190Z,18.83
2017-11-18T23:06:00.022Z,21.75
2017-11-18T23:08:26.894Z,19.02
2017-11-18T23:10:53.801Z,18.23
2017-11-18T23:13:20.636Z,20.25
2017-11-18T23:15:47.482Z,16.17
2017-11-18T23:18:14.632Z,18.40
2017-11-18T23:20:41.785Z,19.65
2017-11-18T23:23:08.942Z,18.75
2017-11-18T23:25:35.820Z,16.98
2017-11-18T23:28:02.640Z,18.70
2017-11-18T23:30:29.497Z,15.93
2017-11-18T23:32:56.349Z,18.77
2017-11-18T23:35:23.459Z,13.77
2017-11-18T23:37:50.345Z,13.00
2017-11-18T23:40:17.217Z,16.30
2017-11-18T23:42:44.062Z,16.95
2017-11-18T23:45:10.923Z,14.52
2017-11-18T23:47:38.086Z,12.98
2017-11-18T23:50:05.229Z,13.32
2017-11-18T23:52:32.123Z,17.52
2017-11-18T23:54:59.026Z,13.05
2017-11-18T23:57:26.092Z,14.80
2017-11-18T23:59:53.217Z,14.37
